Disclaimer

Please do not use the information listed here in-flight or in-navigation, as they are not provided to us by the airports but are provided by volunteers, so they might be outdated.

Search


Regions


Airport information page

Radio informations:
Tower (TWR) - 118.1 MHz
CALI RDO - 126.7 MHz
Ground (GND) - 121.9 MHz
Automatic Terminal Information Service (ATIS) - 115.5 MHz
CALI APP - 119.1 MHz

Airport informations:
Latitude: 03° 32' 35.60" N
Longitude: 076° 22' 53.70" W
Elevation: 3162 feet - 964 meters
Operating hours: 24 hour operations
Operating agency: Civil government, landing fees and diplomatic clearance may be required
Timezone: UTC-5
Fuel: Jet A1, without icing nhibitor.

100/130 MIL Spec, low lead, aviation gasoline (BLUE)

Runway information:
01/19 - 9842 x 148 feet< - >3000 x 45 meters

Recent METARs:
SKCL 202000Z 34004KT 9999 FEW027 30/20 A2987
SKCL 202000Z 34004KT 9999 FEW027 30/20 A2987
SKCL 202100Z 29003KT 9999 SCT027 30/20 A2986

Airport on the map: